Time;durP1;ratioP1;P1;durP2;ratioP2;P2;SDS_P1;SDS_P2;PMS_P1;PMS_P2;Temp;Humidity;BMP_temperature;BMP_pressure;BME280_temperature;BME280_humidity;BME280_pressure;Samples;Min_cycle;Max_cycle;Signal;HPM_P1;HPM_P2
2022/01/21 00:01:46;;;;;;;;;3.00;3.00;;;;;3.86;70.97;102775.34;5047196;28;45504;-75
2022/01/21 00:04:12;;;;;;;;;0.50;0.50;;;;;3.87;71.22;102775.41;5058156;28;46064;-76
2022/01/21 00:06:38;;;;;;;;;6.75;4.00;;;;;3.82;71.26;102769.06;5059294;28;45320;-76
2022/01/21 00:09:04;;;;;;;;;4.00;1.00;;;;;3.82;71.16;102773.41;5060846;28;45443;-76
2022/01/21 00:11:31;;;;;;;;;7.00;4.00;;;;;3.79;71.36;102781.13;5039768;28;45458;-76
2022/01/21 00:13:57;;;;;;;;;3.50;1.50;;;;;3.71;71.46;102770.31;5056364;28;46253;-75
2022/01/21 00:16:25;;;;;;;;;6.50;3.75;;;;;3.68;71.34;102771.09;5050204;28;45497;-75
2022/01/21 00:18:57;;;;;;;;;5.25;2.00;;;;;3.71;71.38;102779.06;5036769;28;45498;-75
2022/01/21 00:32:20;;;;;;;;;2.00;2.00;;;;;3.60;71.66;102748.94;5036786;28;45412;-75
2022/01/21 00:34:45;;;;;;;;;6.75;5.00;;;;;3.57;71.93;102756.66;5018542;28;45670;-75
2022/01/21 00:37:11;;;;;;;;;4.00;4.00;;;;;3.52;72.06;102764.31;5048354;28;45253;-81
2022/01/21 00:39:36;;;;;;;;;5.50;3.50;;;;;3.51;72.46;102761.63;5064299;28;45603;-80
2022/01/21 00:44:49;;;;;;;;;4.75;1.00;;;;;3.38;72.89;102754.94;5042816;28;45465;-79
2022/01/21 00:47:14;;;;;;;;;2.00;2.00;;;;;3.46;73.13;102758.81;5036034;28;45482;-80
2022/01/21 00:49:39;;;;;;;;;3.75;3.00;;;;;3.49;72.82;102760.63;5018940;28;45404;-80
2022/01/21 00:52:05;;;;;;;;;3.75;3.50;;;;;3.51;72.49;102753.78;5035297;28;45489;-80
2022/01/21 00:54:31;;;;;;;;;4.50;4.50;;;;;3.56;72.63;102760.09;5036760;28;46128;-79
2022/01/21 00:56:56;;;;;;;;;6.50;5.00;;;;;3.56;73.00;102760.97;5040845;28;45495;-81
2022/01/21 00:59:22;;;;;;;;;4.25;3.75;;;;;3.58;73.02;102754.94;5035858;28;45464;-80
2022/01/21 01:01:47;;;;;;;;;4.50;4.50;;;;;3.63;72.25;102749.06;5036269;28;45435;-79
2022/01/21 01:04:13;;;;;;;;;1.75;1.50;;;;;3.61;72.12;102766.41;5035552;28;47782;-80
2022/01/21 01:06:38;;;;;;;;;6.75;3.75;;;;;3.62;72.44;102765.59;5035683;28;45406;-76
2022/01/21 01:09:04;;;;;;;;;5.00;3.00;;;;;3.65;72.17;102760.50;5039061;28;45358;-75
2022/01/21 01:22:10;;;;;;;;;9.25;3.75;;;;;3.62;72.37;102760.34;5056089;28;45351;-76
2022/01/21 01:29:58;;;;;;;;;5.00;4.00;;;;;3.52;72.64;102759.06;5035004;28;45483;-75
2022/01/21 01:32:25;;;;;;;;;6.00;1.00;;;;;3.49;72.83;102753.72;5035036;28;45402;-76
2022/01/21 01:34:51;;;;;;;;;6.00;2.50;;;;;3.50;72.53;102758.09;5035661;28;45488;-77
2022/01/21 01:37:33;;;;;;;;;4.75;3.00;;;;;3.46;72.58;102750.97;5036237;28;45363;-75
2022/01/21 01:40:17;;;;;;;;;5.50;3.00;;;;;3.49;73.25;102764.16;5038087;28;45376;-75
2022/01/21 01:51:00;;;;;;;;;4.00;4.00;;;;;3.48;72.62;102757.16;5037034;28;45454;-80
2022/01/21 01:53:38;;;;;;;;;1.50;1.50;;;;;3.43;73.00;102757.75;5044246;28;45461;-80
2022/01/21 01:56:07;;;;;;;;;4.25;1.00;;;;;3.40;73.61;102765.47;5055817;28;45362;-80
2022/01/21 01:58:41;;;;;;;;;1.00;1.00;;;;;3.34;73.69;102764.38;5034916;28;45510;-82
2022/01/21 02:01:07;;;;;;;;;3.00;1.00;;;;;3.36;73.86;102767.94;5035496;28;45423;-80
2022/01/21 02:03:38;;;;;;;;;4.50;3.00;;;;;3.33;72.75;102767.81;5035832;28;45519;-80
2022/01/21 02:06:05;;;;;;;;;4.00;1.00;;;;;3.30;73.41;102769.41;5036045;28;45272;-82
2022/01/21 02:08:31;;;;;;;;;6.50;5.50;;;;;3.26;73.39;102770.97;5032884;28;45396;-76
2022/01/21 02:10:57;;;;;;;;;3.25;1.00;;;;;3.29;73.77;102776.34;5036626;28;45522;-76
2022/01/21 02:13:34;;;;;;;;;3.75;3.25;;;;;3.26;73.35;102770.97;5038830;28;45438;-76
2022/01/21 02:16:13;;;;;;;;;4.00;3.25;;;;;3.20;73.79;102770.69;5035337;28;45471;-76
2022/01/21 02:21:37;;;;;;;;;4.00;3.00;;;;;3.19;74.72;102777.66;5036312;28;45446;-80
2022/01/21 02:24:31;;;;;;;;;6.25;3.25;;;;;3.11;74.42;102775.50;5035835;28;45609;-81
2022/01/21 02:26:56;;;;;;;;;1.50;1.00;;;;;3.04;74.21;102748.22;5033903;28;47267;-81
2022/01/21 02:29:30;;;;;;;;;4.00;3.00;;;;;3.11;74.36;102773.81;5035033;28;45415;-81
2022/01/21 02:31:57;;;;;;;;;1.50;1.00;;;;;2.95;74.21;102753.91;5035305;28;45511;-80
2022/01/21 02:34:23;;;;;;;;;5.75;5.50;;;;;3.08;73.92;102765.78;5034545;28;45511;-81
2022/01/21 02:36:49;;;;;;;;;1.50;1.50;;;;;3.07;75.11;102761.41;5018756;28;46262;-81
2022/01/21 02:39:14;;;;;;;;;6.75;3.25;;;;;3.03;74.54;102757.75;5040298;28;45490;-80
2022/01/21 02:41:40;;;;;;;;;12.00;5.50;;;;;3.01;74.26;102775.09;5036943;28;45500;-81
2022/01/21 02:44:08;;;;;;;;;5.50;3.75;;;;;2.97;75.01;102762.69;5041189;28;45424;-79
2022/01/21 02:46:37;;;;;;;;;6.00;6.00;;;;;2.94;75.16;102765.16;5039826;28;45998;-80
2022/01/21 02:49:02;;;;;;;;;2.50;2.50;;;;;2.93;75.29;102768.63;5040266;28;45372;-80
2022/01/21 02:51:27;;;;;;;;;4.00;4.00;;;;;2.93;74.95;102771.25;5041147;28;45451;-80
2022/01/21 02:56:18;;;;;;;;;5.50;3.25;;;;;2.86;74.97;102756.09;5049201;28;45321;-78
2022/01/21 02:58:46;;;;;;;;;9.25;2.00;;;;;2.88;74.98;102762.28;5039497;28;45411;-81
2022/01/21 03:01:12;;;;;;;;;1.25;0.25;;;;;2.86;75.36;102758.72;5037131;28;45447;-80
2022/01/21 03:03:40;;;;;;;;;9.50;7.00;;;;;2.90;74.85;102773.72;5058867;28;45293;-80
2022/01/21 03:06:06;;;;;;;;;7.00;3.50;;;;;2.82;74.75;102762.91;5058571;28;46260;-80
2022/01/21 03:08:32;;;;;;;;;5.25;3.00;;;;;2.86;75.34;102774.38;5038962;28;45419;-81
2022/01/21 03:10:57;;;;;;;;;2.50;2.50;;;;;2.83;75.64;102771.63;5039108;28;45458;-81
2022/01/21 03:13:23;;;;;;;;;2.25;1.00;;;;;2.78;75.22;102767.88;5041927;28;45316;-80
2022/01/21 03:15:50;;;;;;;;;6.25;1.00;;;;;2.83;74.87;102775.13;5042968;28;45475;-80
2022/01/21 03:18:16;;;;;;;;;6.00;6.00;;;;;2.80;75.87;102776.72;5038835;28;45451;-80
2022/01/21 03:20:41;;;;;;;;;3.50;1.00;;;;;2.76;75.93;102766.94;5020342;28;45423;-80
2022/01/21 03:23:08;;;;;;;;;6.75;2.50;;;;;2.74;76.21;102768.59;5038477;28;45378;-81
2022/01/21 03:25:34;;;;;;;;;5.00;4.00;;;;;2.72;75.07;102770.22;5038369;28;45514;-80
2022/01/21 03:27:59;;;;;;;;;5.50;3.00;;;;;2.71;75.41;102771.06;5037655;28;45456;-80
2022/01/21 03:30:25;;;;;;;;;10.00;6.75;;;;;2.69;75.98;102778.81;5038002;28;45552;-80
2022/01/21 03:32:50;;;;;;;;;3.50;3.50;;;;;2.65;76.47;102769.94;5037903;28;45363;-80
2022/01/21 03:35:16;;;;;;;;;7.00;4.00;;;;;2.67;76.05;102777.81;5036877;28;46969;-80
2022/01/21 03:37:41;;;;;;;;;1.00;1.00;;;;;2.67;76.11;102786.59;5018648;28;45574;-80
2022/01/21 03:40:07;;;;;;;;;5.00;2.00;;;;;2.69;75.54;102789.25;5038582;28;45640;-81
2022/01/21 03:42:32;;;;;;;;;2.50;2.50;;;;;2.64;76.13;102773.38;5037672;28;45596;-80
2022/01/21 03:44:58;;;;;;;;;7.00;6.00;;;;;2.66;75.95;102779.56;5044746;28;45890;-80
2022/01/21 03:47:23;;;;;;;;;12.00;6.75;;;;;2.61;75.79;102781.06;5041133;28;45371;-81
2022/01/21 03:49:55;;;;;;;;;5.50;3.00;;;;;2.63;76.39;102797.69;5038367;28;45394;-80
2022/01/21 03:52:20;;;;;;;;;5.00;4.00;;;;;2.60;76.12;102791.44;5038536;28;45575;-80
2022/01/21 03:54:46;;;;;;;;;3.75;3.75;;;;;2.57;76.34;102788.69;5038690;28;45428;-79
2022/01/21 03:57:13;;;;;;;;;6.25;6.00;;;;;2.62;75.99;102785.44;5039066;28;45658;-80
2022/01/21 03:59:41;;;;;;;;;7.50;6.00;;;;;2.61;75.67;102786.28;5037207;28;45565;-81
2022/01/21 04:02:07;;;;;;;;;0.75;0.75;;;;;2.56;76.92;102774.72;5036919;28;45459;-81
2022/01/21 04:04:34;;;;;;;;;9.75;3.50;;;;;2.61;76.82;102780.16;5037239;28;45466;-76
2022/01/21 04:06:59;;;;;;;;;3.75;3.75;;;;;2.67;76.25;102789.19;5036986;28;45410;-76
2022/01/21 04:09:26;;;;;;;;;4.00;3.00;;;;;2.70;76.28;102792.75;5049412;28;45541;-75
2022/01/21 04:11:52;;;;;;;;;2.50;2.50;;;;;2.70;76.54;102793.66;5057869;28;45389;-79
2022/01/21 04:14:32;;;;;;;;;3.00;1.50;;;;;2.73;76.60;102798.13;5044358;28;46112;-82
2022/01/21 04:16:57;;;;;;;;;1.00;1.00;;;;;2.56;76.31;102772.09;5039158;28;45470;-81
2022/01/21 04:19:46;;;;;;;;;3.00;3.00;;;;;2.67;75.86;102777.81;5038415;28;45426;-80
2022/01/21 04:22:11;;;;;;;;;3.00;3.00;;;;;2.46;75.82;102746.38;5026454;28;45474;-76
2022/01/21 04:24:38;;;;;;;;;3.25;3.00;;;;;2.61;76.21;102773.22;5023534;28;48206;-75
2022/01/21 04:27:04;;;;;;;;;3.00;3.00;;;;;2.73;75.37;102803.34;5019027;28;45537;-80
2022/01/21 04:29:29;;;;;;;;;2.00;2.00;;;;;2.61;75.86;102782.75;5036917;28;45470;-81
2022/01/21 04:31:54;;;;;;;;;2.00;2.00;;;;;2.71;75.87;102810.22;5036092;28;45329;-82
2022/01/21 04:34:19;;;;;;;;;2.50;2.50;;;;;2.71;76.20;102799.78;5037058;28;45537;-81
2022/01/21 04:36:45;;;;;;;;;3.50;3.50;;;;;2.76;76.15;102806.09;5019579;28;45438;-81
2022/01/21 04:39:17;;;;;;;;;4.25;3.25;;;;;2.75;76.43;102799.09;5036412;28;45407;-75
2022/01/21 04:49:38;;;;;;;;;1.50;1.00;;;;;2.77;75.66;102806.19;5036441;28;45344;-76
2022/01/21 04:52:04;;;;;;;;;3.00;3.00;;;;;2.80;76.19;102814.16;5036188;28;45427;-75
2022/01/21 04:54:35;;;;;;;;;3.75;3.75;;;;;2.78;76.44;102801.84;5035968;28;46930;-76
2022/01/21 04:57:02;;;;;;;;;6.75;5.50;;;;;2.73;76.05;102778.13;5035954;28;45395;-74
2022/01/21 04:59:27;;;;;;;;;3.25;3.25;;;;;2.77;75.80;102793.13;5036105;28;45443;-75
2022/01/21 05:01:53;;;;;;;;;2.00;2.00;;;;;2.82;75.63;102801.19;5036072;28;45474;-75
2022/01/21 05:04:20;;;;;;;;;1.00;1.00;;;;;2.83;76.08;102808.19;5035922;28;46068;-77
2022/01/21 05:06:47;;;;;;;;;10.00;6.75;;;;;2.80;75.30;102811.56;5036164;28;45566;-76
2022/01/21 05:09:15;;;;;;;;;4.75;4.00;;;;;2.84;75.91;102817.84;5034854;28;45709;-76
2022/01/21 05:11:41;;;;;;;;;5.25;3.25;;;;;2.84;75.97;102805.66;5036107;28;45493;-75
2022/01/21 05:14:19;;;;;;;;;2.50;2.50;;;;;2.82;75.37;102803.78;5036780;28;45423;-76
2022/01/21 05:16:48;;;;;;;;;5.50;4.00;;;;;2.83;74.97;102801.25;5029075;28;45592;-80
2022/01/21 05:19:16;;;;;;;;;1.00;1.00;;;;;2.87;75.32;102809.22;5063163;28;45438;-80
2022/01/21 05:21:44;;;;;;;;;2.00;2.00;;;;;2.90;75.72;102806.75;5057061;28;45680;-81
2022/01/21 05:24:10;;;;;;;;;6.75;4.00;;;;;2.93;74.81;102822.56;5045429;28;45486;-80
2022/01/21 05:26:38;;;;;;;;;4.25;1.50;;;;;2.92;74.51;102811.25;5036109;28;45524;-79
2022/01/21 05:29:08;;;;;;;;;4.00;2.50;;;;;2.85;74.78;102798.69;5035407;28;45379;-80
2022/01/21 05:31:34;;;;;;;;;3.75;1.00;;;;;2.93;74.65;102805.19;5036010;28;45390;-80
2022/01/21 05:34:01;;;;;;;;;4.50;1.00;;;;;2.93;75.27;102806.91;5035138;28;45589;-80
2022/01/21 05:36:30;;;;;;;;;2.50;2.50;;;;;2.88;74.42;102804.06;5035824;28;45380;-80
2022/01/21 05:38:56;;;;;;;;;2.50;2.50;;;;;2.94;74.70;102819.16;5035250;28;45597;-80
2022/01/21 05:41:23;;;;;;;;;3.75;3.25;;;;;2.97;74.72;102825.41;5036005;28;45562;-80
2022/01/21 05:43:50;;;;;;;;;5.50;3.50;;;;;2.92;75.18;102819.06;5034902;28;46119;-80
2022/01/21 05:49:00;;;;;;;;;4.00;1.00;;;;;2.95;74.53;102821.84;5041678;28;45400;-79
2022/01/21 05:51:25;;;;;;;;;0.00;0.00;;;;;2.92;74.55;102816.47;5041414;28;45335;-80
2022/01/21 05:53:51;;;;;;;;;2.50;2.50;;;;;2.98;74.64;102828.94;5045357;28;46054;-81
2022/01/21 05:56:17;;;;;;;;;3.00;3.00;;;;;2.96;74.24;102830.56;5038347;28;45457;-80
2022/01/21 05:58:42;;;;;;;;;3.00;3.00;;;;;2.97;74.76;102829.75;5055981;28;45540;-80
2022/01/21 06:01:08;;;;;;;;;1.50;1.50;;;;;3.00;75.09;102845.56;5055702;28;45704;-80
2022/01/21 06:03:34;;;;;;;;;2.50;2.50;;;;;2.98;74.45;102842.00;5020269;28;47270;-81
2022/01/21 06:05:59;;;;;;;;;4.00;3.00;;;;;2.89;74.66;102842.44;5038169;28;45982;-80
2022/01/21 06:08:25;;;;;;;;;1.00;1.00;;;;;2.94;75.47;102846.16;5044906;28;45529;-80
2022/01/21 06:10:51;;;;;;;;;1.00;1.00;;;;;2.92;74.58;102842.59;5017864;28;45416;-76
2022/01/21 06:13:18;;;;;;;;;3.75;3.25;;;;;2.91;74.79;102840.78;5016867;28;48226;-76
2022/01/21 06:15:44;;;;;;;;;0.25;0.25;;;;;2.93;75.08;102843.47;5035418;28;45434;-80
2022/01/21 06:18:10;;;;;;;;;1.00;1.00;;;;;2.92;74.85;102847.81;5050627;28;45488;-80
2022/01/21 06:20:36;;;;;;;;;2.75;1.00;;;;;2.93;74.76;102848.69;5043307;28;45365;-80
2022/01/21 06:23:01;;;;;;;;;0.00;0.00;;;;;2.92;74.76;102847.81;5037448;28;46006;-76
2022/01/21 06:25:26;;;;;;;;;2.50;0.25;;;;;2.93;74.71;102844.41;5034413;28;45562;-76
2022/01/21 06:27:52;;;;;;;;;0.50;0.50;;;;;2.94;74.83;102848.78;5034714;28;45399;-76
2022/01/21 06:30:17;;;;;;;;;4.00;1.00;;;;;2.95;75.15;102839.25;5034313;28;45535;-75
2022/01/21 06:32:43;;;;;;;;;2.50;2.50;;;;;2.96;75.13;102843.63;5034354;28;45658;-77
2022/01/21 06:35:17;;;;;;;;;3.00;0.00;;;;;2.90;74.99;102836.41;5034429;28;45514;-76
2022/01/21 06:37:42;;;;;;;;;0.50;0.00;;;;;2.92;74.48;102831.25;5034151;28;45334;-76
2022/01/21 06:40:09;;;;;;;;;1.00;0.00;;;;;2.92;75.58;102832.13;5037407;28;45377;-76
2022/01/21 06:42:35;;;;;;;;;1.00;1.00;;;;;2.91;75.23;102830.34;5038809;28;46209;-76
2022/01/21 06:45:01;;;;;;;;;0.00;0.00;;;;;2.96;74.73;102855.00;5039956;28;45415;-76
2022/01/21 06:47:27;;;;;;;;;4.00;3.00;;;;;2.92;74.88;102850.44;5052524;28;45526;-75
2022/01/21 06:49:54;;;;;;;;;6.25;3.25;;;;;2.88;75.34;102848.47;5046589;28;45391;-75
2022/01/21 06:52:21;;;;;;;;;0.75;0.75;;;;;2.93;74.63;102860.06;5040676;28;45552;-76
2022/01/21 06:54:47;;;;;;;;;5.50;3.25;;;;;2.92;75.28;102852.16;5023035;28;45514;-76
2022/01/21 06:57:12;;;;;;;;;3.75;3.00;;;;;2.90;75.07;102859.94;5037820;28;45509;-80
2022/01/21 06:59:38;;;;;;;;;2.50;2.00;;;;;2.92;75.47;102853.03;5038219;28;45342;-79
2022/01/21 07:02:04;;;;;;;;;4.00;2.50;;;;;2.98;75.33;102863.78;5038080;28;45363;-80
2022/01/21 07:04:29;;;;;;;;;6.00;1.00;;;;;2.97;75.73;102861.97;5019925;28;45308;-79
2022/01/21 07:06:57;;;;;;;;;3.00;3.00;;;;;2.97;75.34;102861.97;5037866;28;45444;-80
2022/01/21 07:09:24;;;;;;;;;1.00;1.00;;;;;3.00;75.56;102869.97;5038032;28;45557;-80
2022/01/21 07:11:50;;;;;;;;;2.00;2.00;;;;;3.03;74.89;102880.56;5019384;28;46387;-80
2022/01/21 07:14:15;;;;;;;;;4.50;3.50;;;;;3.03;75.08;102882.28;5038416;28;45603;-81
2022/01/21 07:16:40;;;;;;;;;4.00;3.00;;;;;3.05;75.43;102880.63;5020614;28;45883;-81
2022/01/21 07:19:06;;;;;;;;;3.00;3.00;;;;;3.06;74.81;102876.31;5039847;28;45482;-82
2022/01/21 07:21:31;;;;;;;;;4.00;3.00;;;;;2.89;75.01;102852.91;5023818;28;45403;-83
2022/01/21 07:23:56;;;;;;;;;2.50;2.50;;;;;3.01;74.76;102870.88;5040744;28;45454;-81
2022/01/21 07:26:22;;;;;;;;;4.00;2.00;;;;;3.00;75.35;102887.38;5037900;28;45415;-79
2022/01/21 07:28:47;;;;;;;;;3.00;2.25;;;;;2.99;75.01;102894.34;5019046;28;45403;-80
2022/01/21 07:31:13;;;;;;;;;3.00;3.00;;;;;3.00;75.98;102906.56;5038072;28;45447;-80
2022/01/21 07:33:38;;;;;;;;;1.50;1.00;;;;;3.00;75.27;102893.47;5020184;28;45454;-80
2022/01/21 07:36:06;;;;;;;;;3.50;1.00;;;;;2.87;75.36;102862.41;5038576;28;45324;-77
2022/01/21 07:38:32;;;;;;;;;7.25;3.00;;;;;3.04;75.48;102894.56;5042363;28;45569;-80
2022/01/21 07:40:57;;;;;;;;;5.00;3.25;;;;;3.09;75.73;102905.22;5059390;28;45969;-80
2022/01/21 07:43:23;;;;;;;;;2.75;2.50;;;;;3.11;75.76;102907.09;5058391;28;45471;-76
2022/01/21 07:45:48;;;;;;;;;3.25;3.00;;;;;3.00;75.27;102883.03;5056732;28;45426;-78
2022/01/21 07:48:25;;;;;;;;;3.75;1.00;;;;;3.19;74.78;102912.69;5024498;28;45668;-77
2022/01/21 07:50:51;;;;;;;;;7.00;5.00;;;;;3.23;74.97;102917.22;5021894;28;46858;-80
2022/01/21 07:53:16;;;;;;;;;6.50;6.50;;;;;3.08;75.27;102896.47;5043798;28;45575;-83
2022/01/21 07:55:44;;;;;;;;;3.00;3.00;;;;;3.20;74.90;102917.97;5055982;28;45483;-76
2022/01/21 07:58:10;;;;;;;;;6.50;3.75;;;;;3.25;75.20;102925.13;5042181;28;45615;-77
2022/01/21 08:00:37;;;;;;;;;2.50;2.50;;;;;3.24;74.66;102912.91;5043803;28;46684;-76
2022/01/21 08:03:02;;;;;;;;;3.50;3.50;;;;;3.29;74.48;102922.72;5028792;28;45360;-76
2022/01/21 08:05:31;;;;;;;;;4.50;4.00;;;;;3.33;74.59;102924.66;5051297;28;45801;-76
2022/01/21 08:07:57;;;;;;;;;4.00;2.00;;;;;3.35;75.16;102933.47;5050312;28;45519;-76
2022/01/21 08:10:23;;;;;;;;;3.75;3.75;;;;;3.35;74.35;102923.00;5008082;28;46040;-79
2022/01/21 08:12:48;;;;;;;;;3.75;3.75;;;;;3.43;74.15;102932.94;5031626;28;45510;-79
2022/01/21 08:15:13;;;;;;;;;4.00;4.00;;;;;3.43;73.92;102931.25;5044593;28;45337;-76
2022/01/21 08:17:39;;;;;;;;;11.00;2.00;;;;;3.43;73.46;102932.94;5036701;28;45463;-79
2022/01/21 08:20:05;;;;;;;;;6.75;5.00;;;;;3.47;73.94;102932.28;5054658;28;45370;-79
2022/01/21 08:22:30;;;;;;;;;3.75;3.50;;;;;3.49;74.01;102923.69;5040600;28;45307;-79
2022/01/21 08:24:55;;;;;;;;;6.00;6.00;;;;;3.57;74.41;102939.72;5020809;28;45388;-76
2022/01/21 08:27:22;;;;;;;;;7.50;7.00;;;;;3.52;73.94;102939.53;5052606;28;45292;-77
2022/01/21 08:29:48;;;;;;;;;6.50;5.50;;;;;3.63;73.83;102945.25;5042782;28;46094;-79
2022/01/21 08:32:19;;;;;;;;;7.50;7.00;;;;;3.38;73.42;102901.34;5046816;28;45405;-76
2022/01/21 08:34:51;;;;;;;;;7.00;6.75;;;;;3.22;73.53;102857.03;5024136;28;45738;-77
2022/01/21 08:37:20;;;;;;;;;4.00;3.00;;;;;3.73;73.47;102941.31;5035423;28;45534;-75
2022/01/21 08:39:51;;;;;;;;;4.00;4.00;;;;;3.46;73.47;102893.88;5034170;28;45408;-77
2022/01/21 08:42:20;;;;;;;;;6.00;4.00;;;;;3.23;73.44;102850.97;5069757;27;45481;-77
2022/01/21 08:44:46;;;;;;;;;3.00;3.00;;;;;3.77;73.57;102943.25;5049543;28;45358;-79
2022/01/21 08:47:16;;;;;;;;;7.50;5.50;;;;;3.85;73.75;102951.44;5047172;28;45655;-76
2022/01/21 08:49:49;;;;;;;;;6.00;6.00;;;;;3.72;72.95;102924.75;5028346;28;45501;-79
2022/01/21 08:52:23;;;;;;;;;4.50;4.00;;;;;3.55;73.12;102883.81;5058820;28;45545;-77
2022/01/21 08:54:52;;;;;;;;;6.25;6.25;;;;;3.45;72.97;102861.59;5044515;28;45395;-81
2022/01/21 08:57:32;;;;;;;;;6.75;4.50;;;;;3.99;72.96;102946.84;5052676;28;45294;-77
2022/01/21 09:00:01;;;;;;;;;6.25;3.75;;;;;4.04;72.87;102946.22;5011407;28;45505;-76
2022/01/21 09:02:29;;;;;;;;;7.00;6.25;;;;;3.63;72.35;102865.84;5043356;28;45376;-76
2022/01/21 09:04:57;;;;;;;;;7.00;5.50;;;;;3.91;72.25;102915.97;5046105;28;45538;-78
2022/01/21 09:07:23;;;;;;;;;9.75;7.00;;;;;4.13;72.25;102939.59;5034651;28;45607;-80
2022/01/21 09:09:49;;;;;;;;;6.00;4.00;;;;;4.20;72.24;102949.53;5040400;28;46489;-80
2022/01/21 09:12:23;;;;;;;;;8.50;6.75;;;;;4.29;72.05;102938.56;5042852;28;45535;-80
2022/01/21 09:14:49;;;;;;;;;9.50;8.00;;;;;4.01;71.91;102890.22;5044559;28;45581;-76
2022/01/21 09:17:24;;;;;;;;;8.50;5.50;;;;;4.38;71.17;102950.31;5050057;28;45567;-80
2022/01/21 09:19:49;;;;;;;;;9.25;5.50;;;;;3.99;72.01;102882.28;5049199;28;46509;-79
2022/01/21 09:22:15;;;;;;;;;9.00;4.00;;;;;4.37;71.70;102942.38;5052311;28;45410;-77
2022/01/21 09:24:41;;;;;;;;;11.00;8.50;;;;;4.35;71.77;102938.81;5047632;28;45392;-80
2022/01/21 09:27:06;;;;;;;;;4.00;4.00;;;;;4.46;71.40;102963.75;5047152;28;45327;-76
2022/01/21 09:29:33;;;;;;;;;8.75;6.25;;;;;4.46;70.77;102955.88;5043083;28;45473;-76
2022/01/21 09:32:02;;;;;;;;;0.50;0.50;;;;;4.53;70.79;102967.53;5054288;28;45612;-80
2022/01/21 09:34:28;;;;;;;;;8.00;8.00;;;;;4.55;70.78;102968.47;5042869;28;45682;-80
2022/01/21 09:36:56;;;;;;;;;3.25;3.25;;;;;4.50;71.05;102943.81;5039966;28;45787;-80
2022/01/21 09:39:22;;;;;;;;;7.25;4.00;;;;;4.57;70.41;102970.34;5027753;28;46813;-81
2022/01/21 09:41:49;;;;;;;;;9.00;7.50;;;;;4.43;70.83;102950.50;5042486;28;45506;-80
2022/01/21 09:44:19;;;;;;;;;11.00;5.50;;;;;4.57;70.92;102977.28;5046179;28;45517;-79
2022/01/21 09:46:47;;;;;;;;;5.75;4.50;;;;;4.59;71.03;102980.91;5046479;28;45558;-78
2022/01/21 09:51:50;;;;;;;;;4.50;4.50;;;;;4.61;71.45;102989.69;5045740;28;45452;-80
2022/01/21 09:54:16;;;;;;;;;6.75;6.75;;;;;4.68;70.64;102998.75;5049331;28;45374;-79
2022/01/21 09:56:45;;;;;;;;;10.50;6.75;;;;;4.72;70.07;103004.19;5043726;28;45554;-80
2022/01/21 09:59:11;;;;;;;;;9.75;6.75;;;;;4.75;70.42;103004.31;5010021;28;45527;-79
2022/01/21 10:01:36;;;;;;;;;9.25;7.00;;;;;4.74;70.46;103006.84;5040739;28;45398;-80
2022/01/21 10:04:04;;;;;;;;;8.00;6.50;;;;;4.75;70.09;102996.44;5047912;28;45472;-78
2022/01/21 10:06:31;;;;;;;;;10.00;7.50;;;;;4.80;69.99;103009.75;5045365;28;45597;-80
2022/01/21 10:08:57;;;;;;;;;11.00;8.50;;;;;4.80;70.05;103005.38;5038202;28;46002;-80
2022/01/21 10:11:23;;;;;;;;;14.75;7.00;;;;;4.84;70.22;103003.78;5021147;28;45461;-79
2022/01/21 10:13:50;;;;;;;;;7.00;7.00;;;;;4.93;70.20;103005.91;5034845;28;45411;-80
2022/01/21 10:16:15;;;;;;;;;7.75;7.75;;;;;4.96;69.87;102987.66;5042998;28;45614;-81
2022/01/21 10:18:59;;;;;;;;;11.25;8.00;;;;;5.08;69.36;103006.53;5053177;28;46093;-80
2022/01/21 10:21:30;;;;;;;;;15.50;5.75;;;;;5.12;69.91;102997.97;5037050;28;45420;-79
2022/01/21 10:24:14;;;;;;;;;10.00;10.00;;;;;5.13;69.35;102989.28;5040571;28;45419;-86
2022/01/21 10:26:49;;;;;;;;;15.50;8.50;;;;;5.19;69.85;102992.97;5041122;28;45266;-78
2022/01/21 10:29:15;;;;;;;;;8.50;7.50;;;;;5.26;69.66;102995.00;5046326;28;45372;-77
2022/01/21 10:32:01;;;;;;;;;9.25;7.50;;;;;5.40;68.85;103003.44;5045259;28;45428;-81
2022/01/21 10:34:42;;;;;;;;;7.50;7.50;;;;;5.47;68.35;102997.59;5046207;28;44872;-83
2022/01/21 10:37:22;;;;;;;;;11.00;7.50;;;;;5.63;68.16;103004.34;5050444;28;45436;-78
2022/01/21 10:40:10;;;;;;;;;12.50;9.00;;;;;5.70;68.45;103009.88;5048303;28;47416;-84
2022/01/21 10:42:37;;;;;;;;;16.75;13.50;;;;;5.72;67.37;103009.94;5050159;28;45635;-82
2022/01/21 10:45:05;;;;;;;;;10.75;8.75;;;;;5.75;68.16;102996.94;5045587;28;45482;-74
2022/01/21 10:47:33;;;;;;;;;19.00;13.00;;;;;5.84;67.33;102997.28;5044533;28;45499;-76
2022/01/21 10:50:07;;;;;;;;;13.25;12.25;;;;;5.83;67.17;102992.88;5033719;28;46101;-78
2022/01/21 10:52:42;;;;;;;;;12.00;9.50;;;;;5.78;67.44;102983.91;5055345;28;45386;-85
2022/01/21 10:55:27;;;;;;;;;8.25;8.25;;;;;5.92;67.85;103007.19;5028258;28;45430;-75
2022/01/21 10:58:14;;;;;;;;;12.25;10.50;;;;;5.73;67.30;102964.50;5042020;28;45630;-76
2022/01/21 11:01:04;;;;;;;;;17.00;9.25;;;;;5.94;67.55;102989.78;5044537;28;46391;-76
2022/01/21 11:03:30;;;;;;;;;10.75;10.00;;;;;5.93;66.43;102990.59;5023137;28;45385;-76
2022/01/21 11:06:17;;;;;;;;;10.50;9.00;;;;;5.93;67.35;102988.88;5041796;28;45410;-76
2022/01/21 11:08:43;;;;;;;;;12.50;11.00;;;;;5.94;67.11;102985.41;5029610;28;45601;-77
2022/01/21 11:11:09;;;;;;;;;16.00;14.00;;;;;6.03;66.37;102980.53;5043788;28;46453;-77
2022/01/21 11:13:36;;;;;;;;;13.50;12.00;;;;;6.08;66.28;102985.06;5045830;28;45572;-76
2022/01/21 11:16:24;;;;;;;;;12.50;12.00;;;;;6.09;66.50;102987.75;5039258;28;45759;-76
2022/01/21 11:19:05;;;;;;;;;13.25;13.25;;;;;6.10;66.67;102983.38;5043886;28;45395;-76
2022/01/21 11:21:56;;;;;;;;;13.75;11.50;;;;;6.17;66.33;102983.66;5043322;28;45597;-77
2022/01/21 11:24:24;;;;;;;;;9.50;7.00;;;;;6.19;66.16;102997.72;5033476;28;45352;-76
2022/01/21 11:27:11;;;;;;;;;14.75;8.75;;;;;6.22;66.20;102986.44;5040602;28;45391;-77
2022/01/21 11:29:38;;;;;;;;;16.75;10.25;;;;;6.21;65.71;102988.19;5046958;28;45468;-76
2022/01/21 11:32:05;;;;;;;;;15.75;9.00;;;;;6.22;65.55;102979.50;5045400;28;45347;-77
2022/01/21 11:34:36;;;;;;;;;10.50;7.50;;;;;6.29;65.69;102977.09;5044510;28;45870;-76
2022/01/21 11:37:05;;;;;;;;;11.25;11.25;;;;;6.29;65.40;102967.47;5036805;28;45451;-77
2022/01/21 11:39:31;;;;;;;;;13.50;9.75;;;;;6.34;65.23;102978.13;5041034;28;45504;-77
2022/01/21 11:41:59;;;;;;;;;15.50;9.50;;;;;6.40;65.63;102975.72;5031505;28;46154;-76
2022/01/21 11:44:28;;;;;;;;;12.50;9.00;;;;;6.42;65.66;102979.28;5042350;28;45517;-76
2022/01/21 11:49:27;;;;;;;;;15.50;13.00;;;;;6.40;65.00;102975.72;5040225;28;45387;-76
2022/01/21 11:52:28;;;;;;;;;14.50;13.25;;;;;6.38;65.73;102967.78;5048682;28;48067;-78
2022/01/21 11:54:53;;;;;;;;;13.75;13.00;;;;;6.38;64.89;102972.16;4989681;28;45468;-76
2022/01/21 11:57:31;;;;;;;;;13.50;13.25;;;;;6.40;65.68;102963.47;4980540;28;45461;-76
2022/01/21 12:00:06;;;;;;;;;14.75;10.75;;;;;6.42;65.09;102957.38;4971740;28;45608;-76
2022/01/21 12:02:34;;;;;;;;;12.50;12.00;;;;;6.53;65.10;102964.81;4988449;28;45647;-78
2022/01/21 12:05:07;;;;;;;;;15.75;13.00;;;;;6.60;64.99;102976.41;4976420;28;45606;-76
2022/01/21 12:07:57;;;;;;;;;14.50;11.75;;;;;6.65;64.93;102982.75;4974096;28;45465;-76
2022/01/21 12:10:25;;;;;;;;;16.50;10.50;;;;;6.68;64.43;102971.41;4944545;28;45570;-76
2022/01/21 12:12:54;;;;;;;;;11.25;11.00;;;;;6.75;63.90;102974.28;4945342;28;46896;-76
2022/01/21 12:18:58;;;;;;;;;16.50;13.00;;;;;6.86;64.55;102965.88;4936093;28;45684;-76
2022/01/21 12:21:32;;;;;;;;;8.00;6.00;;;;;6.90;64.00;102970.41;4944176;28;45587;-76
2022/01/21 12:23:59;;;;;;;;;7.75;7.75;;;;;6.86;63.40;102965.88;4942653;28;45510;-76
2022/01/21 12:26:27;;;;;;;;;13.00;11.25;;;;;6.88;63.13;102964.22;4944122;28;45516;-76
2022/01/21 12:28:52;;;;;;;;;11.75;10.00;;;;;6.83;63.15;102956.19;4961557;28;45494;-77
2022/01/21 12:31:21;;;;;;;;;10.50;10.50;;;;;6.84;63.16;102942.16;4994174;28;45496;-76
2022/01/21 12:34:01;;;;;;;;;8.00;8.00;;;;;6.80;63.32;102950.78;4976276;28;45739;-76
2022/01/21 12:36:34;;;;;;;;;9.00;5.00;;;;;6.79;63.02;102938.50;4978625;28;45443;-76
2022/01/21 12:41:31;;;;;;;;;7.25;5.00;;;;;6.80;63.00;102948.16;4987947;28;45492;-76
2022/01/21 12:44:10;;;;;;;;;6.50;6.50;;;;;6.83;62.76;102935.16;4987462;28;46190;-76